Time;durP1;ratioP1;P1;durP2;ratioP2;P2;SDS_P1;SDS_P2;PMS_P1;PMS_P2;Temp;Humidity;BMP_temperature;BMP_pressure;BME280_temperature;BME280_humidity;BME280_pressure;Samples;Min_cycle;Max_cycle;Signal;HPM_P1;HPM_P2
2021/08/28 00:01:17;;;;;;;7.47;3.67;;;;;;;;;;6179656;28;20124;-71
2021/08/28 00:04:19;;;;;;;6.53;2.95;;;;;;;;;;6179331;28;20089;-75
2021/08/28 00:07:20;;;;;;;4.78;3.28;;;;;;;;;;6180260;28;20102;-68
2021/08/28 00:10:23;;;;;;;6.68;3.80;;;;;;;;;;6180540;28;20517;-78
2021/08/28 00:13:25;;;;;;;8.23;3.50;;;;;;;;;;6180140;28;20054;-73
2021/08/28 00:16:28;;;;;;;7.95;3.47;;;;;;;;;;6177694;28;20083;-69
2021/08/28 00:19:29;;;;;;;4.93;3.15;;;;;;;;;;6179620;28;20050;-69
2021/08/28 00:22:31;;;;;;;4.88;3.45;;;;;;;;;;6176811;28;20145;-68
2021/08/28 00:25:33;;;;;;;7.38;4.03;;;;;;;;;;6180104;28;20039;-75
2021/08/28 00:28:34;;;;;;;6.10;3.55;;;;;;;;;;6187122;28;20051;-78
2021/08/28 00:31:37;;;;;;;6.13;3.30;;;;;;;;;;6179243;28;20133;-69
2021/08/28 00:34:39;;;;;;;5.38;3.28;;;;;;;;;;6185627;28;20509;-68
2021/08/28 00:37:41;;;;;;;3.88;3.20;;;;;;;;;;6181592;28;20193;-70
2021/08/28 00:40:43;;;;;;;5.18;3.47;;;;;;;;;;6183218;28;20173;-68
2021/08/28 00:43:44;;;;;;;5.25;3.50;;;;;;;;;;6186545;28;20046;-68
2021/08/28 00:46:48;;;;;;;6.63;3.42;;;;;;;;;;6176460;28;20174;-77
2021/08/28 00:49:50;;;;;;;4.85;3.40;;;;;;;;;;6183555;28;20038;-68
2021/08/28 00:52:53;;;;;;;4.93;3.40;;;;;;;;;;6180368;28;20047;-69
2021/08/28 00:55:54;;;;;;;5.00;2.80;;;;;;;;;;6180320;28;20141;-68
2021/08/28 00:58:56;;;;;;;4.53;3.03;;;;;;;;;;6186770;28;20065;-69
2021/08/28 01:01:59;;;;;;;6.50;3.60;;;;;;;;;;6177258;28;20472;-69
2021/08/28 01:05:06;;;;;;;5.60;3.40;;;;;;;;;;6181112;28;20042;-72
2021/08/28 01:08:15;;;;;;;5.00;3.15;;;;;;;;;;6179795;28;20047;-70
2021/08/28 01:11:20;;;;;;;5.43;3.53;;;;;;;;;;6180808;28;20042;-69
2021/08/28 01:14:25;;;;;;;6.10;3.53;;;;;;;;;;6185672;28;20112;-69
2021/08/28 01:17:28;;;;;;;4.50;3.40;;;;;;;;;;6178285;28;20573;-69
2021/08/28 01:20:38;;;;;;;7.28;3.58;;;;;;;;;;6178666;28;20181;-76
2021/08/28 01:23:40;;;;;;;5.50;3.50;;;;;;;;;;6178844;28;20046;-73
2021/08/28 01:26:48;;;;;;;5.72;3.78;;;;;;;;;;6182537;28;20129;-73
2021/08/28 01:29:52;;;;;;;6.35;3.90;;;;;;;;;;6189021;28;20140;-69
2021/08/28 01:32:54;;;;;;;6.95;3.65;;;;;;;;;;6184046;28;20050;-68
2021/08/28 01:35:55;;;;;;;5.10;3.67;;;;;;;;;;6183819;28;20496;-68
2021/08/28 01:38:57;;;;;;;6.60;4.00;;;;;;;;;;6187569;28;20046;-71
2021/08/28 01:42:01;;;;;;;6.20;4.15;;;;;;;;;;6185370;28;20050;-68
2021/08/28 01:45:07;;;;;;;5.30;3.92;;;;;;;;;;6188434;28;20105;-69
2021/08/28 01:48:08;;;;;;;5.78;4.22;;;;;;;;;;6183791;28;20663;-69
2021/08/28 01:51:10;;;;;;;7.68;3.83;;;;;;;;;;6178448;28;20070;-70
2021/08/28 01:54:12;;;;;;;6.40;4.53;;;;;;;;;;6185595;28;20197;-68
2021/08/28 01:57:13;;;;;;;6.43;4.55;;;;;;;;;;6183374;28;20094;-69
2021/08/28 02:00:17;;;;;;;7.68;4.53;;;;;;;;;;6187680;28;20057;-79
2021/08/28 02:03:19;;;;;;;7.63;4.15;;;;;;;;;;6185670;28;20829;-77
2021/08/28 02:06:26;;;;;;;5.60;4.00;;;;;;;;;;6181826;28;20058;-68
2021/08/28 02:09:32;;;;;;;5.97;4.10;;;;;;;;;;6188332;28;20039;-71
2021/08/28 02:12:36;;;;;;;5.78;4.40;;;;;;;;;;6189207;28;20042;-69
2021/08/28 02:15:43;;;;;;;5.90;3.85;;;;;;;;;;6182600;28;20069;-71
2021/08/28 02:18:47;;;;;;;5.97;4.38;;;;;;;;;;6184380;28;20050;-70
2021/08/28 02:21:53;;;;;;;7.80;4.57;;;;;;;;;;6185768;28;20092;-68
2021/08/28 02:24:58;;;;;;;7.25;3.90;;;;;;;;;;6186436;28;20141;-68
2021/08/28 02:28:03;;;;;;;5.38;3.80;;;;;;;;;;6176698;28;20129;-69
2021/08/28 02:31:06;;;;;;;6.30;3.85;;;;;;;;;;6176311;28;20753;-79
2021/08/28 02:34:09;;;;;;;6.45;3.70;;;;;;;;;;6183832;28;20560;-69
2021/08/28 02:37:12;;;;;;;5.05;3.42;;;;;;;;;;6181758;28;20072;-74
2021/08/28 02:40:15;;;;;;;6.15;3.72;;;;;;;;;;6186088;28;20042;-76
2021/08/28 02:43:17;;;;;;;4.38;3.40;;;;;;;;;;6181462;28;20061;-68
2021/08/28 02:46:20;;;;;;;6.00;3.70;;;;;;;;;;6175306;28;20039;-70
2021/08/28 02:49:22;;;;;;;4.47;3.22;;;;;;;;;;6183030;28;20050;-69
2021/08/28 02:52:25;;;;;;;6.40;3.42;;;;;;;;;;6175579;28;20196;-77
2021/08/28 02:55:28;;;;;;;4.32;3.03;;;;;;;;;;6177191;28;20042;-74
2021/08/28 02:58:29;;;;;;;6.15;3.58;;;;;;;;;;6184525;28;20109;-69
2021/08/28 03:01:34;;;;;;;6.90;4.03;;;;;;;;;;6171028;28;20398;-78
2021/08/28 03:04:36;;;;;;;5.10;3.47;;;;;;;;;;6182047;28;20097;-71
2021/08/28 03:07:39;;;;;;;5.60;3.78;;;;;;;;;;6181089;28;20046;-69
2021/08/28 03:10:41;;;;;;;6.45;3.97;;;;;;;;;;6179589;28;20043;-75
2021/08/28 03:13:42;;;;;;;5.65;3.70;;;;;;;;;;6181817;28;20043;-69
2021/08/28 03:16:48;;;;;;;5.90;3.67;;;;;;;;;;6175505;28;20124;-71
2021/08/28 03:19:50;;;;;;;5.45;3.70;;;;;;;;;;6176415;28;20047;-69
2021/08/28 03:22:52;;;;;;;4.93;3.60;;;;;;;;;;6177660;28;20081;-72
2021/08/28 03:25:53;;;;;;;6.93;4.05;;;;;;;;;;6180984;28;20130;-68
2021/08/28 03:28:55;;;;;;;9.88;4.20;;;;;;;;;;6186868;28;20050;-70
2021/08/28 03:32:00;;;;;;;5.70;3.80;;;;;;;;;;6179383;28;20047;-69
2021/08/28 03:35:01;;;;;;;6.22;3.95;;;;;;;;;;6185542;28;22132;-68
2021/08/28 03:38:04;;;;;;;6.53;4.13;;;;;;;;;;6175615;28;20213;-69
2021/08/28 03:41:06;;;;;;;9.02;4.18;;;;;;;;;;6181496;28;20185;-75
2021/08/28 03:44:13;;;;;;;7.28;4.03;;;;;;;;;;6188404;28;20072;-69
2021/08/28 03:47:16;;;;;;;7.38;3.90;;;;;;;;;;6172653;28;20058;-78
2021/08/28 03:50:18;;;;;;;5.38;3.80;;;;;;;;;;6182359;28;20097;-77
2021/08/28 03:53:19;;;;;;;6.43;4.07;;;;;;;;;;6179457;28;20397;-71
2021/08/28 03:56:21;;;;;;;7.93;4.13;;;;;;;;;;6175850;28;20047;-69
2021/08/28 03:59:23;;;;;;;6.78;4.00;;;;;;;;;;6185764;28;20125;-70
2021/08/28 04:02:26;;;;;;;7.55;4.55;;;;;;;;;;6180644;28;20038;-68
2021/08/28 04:05:27;;;;;;;5.15;3.72;;;;;;;;;;6182146;28;20705;-69
2021/08/28 04:08:29;;;;;;;5.30;3.88;;;;;;;;;;6185744;28;20047;-71
2021/08/28 04:11:30;;;;;;;7.03;3.45;;;;;;;;;;6182250;28;20042;-72
2021/08/28 04:14:32;;;;;;;6.43;4.07;;;;;;;;;;6189004;28;20035;-74
2021/08/28 04:17:35;;;;;;;8.25;4.20;;;;;;;;;;6177157;28;20216;-70
2021/08/28 04:20:36;;;;;;;6.28;3.22;;;;;;;;;;6178980;28;20082;-71
2021/08/28 04:23:38;;;;;;;6.38;3.90;;;;;;;;;;6189358;28;20097;-68
2021/08/28 04:26:39;;;;;;;4.72;3.45;;;;;;;;;;6183478;28;20075;-69
2021/08/28 04:29:41;;;;;;;4.65;3.15;;;;;;;;;;6177215;28;20050;-69
2021/08/28 04:32:44;;;;;;;7.22;3.63;;;;;;;;;;6177705;28;20077;-71
2021/08/28 04:35:45;;;;;;;8.80;3.40;;;;;;;;;;6180306;28;20597;-68
2021/08/28 04:38:47;;;;;;;5.75;3.33;;;;;;;;;;6191866;28;20092;-69
2021/08/28 04:41:49;;;;;;;4.07;2.95;;;;;;;;;;6185726;28;20129;-68
2021/08/28 04:44:53;;;;;;;5.40;2.97;;;;;;;;;;6192099;28;20073;-69
2021/08/28 04:47:56;;;;;;;3.67;2.40;;;;;;;;;;6186297;28;20054;-69
2021/08/28 04:50:58;;;;;;;6.97;2.45;;;;;;;;;;6190281;28;20129;-71
2021/08/28 04:53:59;;;;;;;6.13;2.63;;;;;;;;;;6192029;28;20375;-70
2021/08/28 04:57:01;;;;;;;7.72;2.90;;;;;;;;;;6193272;28;20490;-69
2021/08/28 05:00:04;;;;;;;4.90;2.25;;;;;;;;;;6191003;28;20069;-71
2021/08/28 05:03:07;;;;;;;3.10;1.80;;;;;;;;;;6190466;28;20046;-68
2021/08/28 05:06:09;;;;;;;3.07;1.80;;;;;;;;;;6189087;28;20189;-67
2021/08/28 05:09:10;;;;;;;3.03;1.75;;;;;;;;;;6191570;28;20470;-69
2021/08/28 05:12:12;;;;;;;2.63;1.50;;;;;;;;;;6192966;28;20050;-68
2021/08/28 05:15:14;;;;;;;3.13;1.65;;;;;;;;;;6191395;28;20082;-80
2021/08/28 05:18:17;;;;;;;3.20;1.80;;;;;;;;;;6183821;28;20176;-68
2021/08/28 05:21:18;;;;;;;2.27;1.37;;;;;;;;;;6190863;28;20129;-71
2021/08/28 05:24:20;;;;;;;1.83;1.40;;;;;;;;;;6197491;28;20090;-70
2021/08/28 05:27:21;;;;;;;2.92;1.80;;;;;;;;;;6181835;28;20179;-68
2021/08/28 05:30:23;;;;;;;3.22;1.80;;;;;;;;;;6188333;28;20064;-79
2021/08/28 05:33:26;;;;;;;2.90;2.00;;;;;;;;;;6190833;28;20089;-68
2021/08/28 05:36:27;;;;;;;3.05;1.65;;;;;;;;;;6194139;28;20091;-68
2021/08/28 05:39:30;;;;;;;3.67;1.60;;;;;;;;;;6189239;28;20087;-68
2021/08/28 05:42:31;;;;;;;4.05;1.60;;;;;;;;;;6186115;28;20069;-68
2021/08/28 05:45:33;;;;;;;2.10;1.50;;;;;;;;;;6189551;28;20048;-77
2021/08/28 05:48:36;;;;;;;3.10;1.50;;;;;;;;;;6187442;28;20050;-68
2021/08/28 05:51:37;;;;;;;2.67;1.70;;;;;;;;;;6174386;28;20086;-71
2021/08/28 05:54:39;;;;;;;2.60;1.50;;;;;;;;;;6187984;28;20043;-68
2021/08/28 05:57:41;;;;;;;3.15;1.80;;;;;;;;;;6188055;28;20047;-68
2021/08/28 06:00:42;;;;;;;2.17;1.60;;;;;;;;;;6184763;28;20039;-80
2021/08/28 06:03:45;;;;;;;4.75;1.60;;;;;;;;;;6182081;28;20184;-72
2021/08/28 06:06:47;;;;;;;1.97;1.37;;;;;;;;;;6178758;28;20168;-67
2021/08/28 06:09:48;;;;;;;3.83;1.80;;;;;;;;;;6182190;28;20508;-68
2021/08/28 06:12:50;;;;;;;2.05;1.40;;;;;;;;;;6182407;28;20141;-74
2021/08/28 06:15:51;;;;;;;2.20;1.38;;;;;;;;;;6179918;28;20194;-68
2021/08/28 06:18:54;;;;;;;3.40;1.65;;;;;;;;;;6185262;28;20180;-68
2021/08/28 06:21:56;;;;;;;1.67;1.38;;;;;;;;;;6178835;28;20505;-68
2021/08/28 06:24:57;;;;;;;3.40;1.65;;;;;;;;;;6185253;28;20181;-72
2021/08/28 06:27:59;;;;;;;10.77;1.95;;;;;;;;;;6178898;28;20181;-76
2021/08/28 06:31:01;;;;;;;2.85;1.50;;;;;;;;;;6179085;28;20201;-77
2021/08/28 06:34:04;;;;;;;2.08;1.42;;;;;;;;;;6187046;28;20042;-68
2021/08/28 06:37:05;;;;;;;4.93;1.70;;;;;;;;;;6183062;28;20057;-69
2021/08/28 06:40:08;;;;;;;6.00;1.92;;;;;;;;;;6185064;28;20042;-77
2021/08/28 06:43:09;;;;;;;5.57;1.60;;;;;;;;;;6180395;28;20667;-69
2021/08/28 06:46:11;;;;;;;2.83;1.63;;;;;;;;;;6166696;28;20054;-69
2021/08/28 06:49:14;;;;;;;2.72;1.38;;;;;;;;;;6178841;28;20101;-71
2021/08/28 06:52:15;;;;;;;11.27;3.13;;;;;;;;;;6181392;28;20189;-69
2021/08/28 06:55:17;;;;;;;2.35;1.77;;;;;;;;;;6186201;28;20158;-76
2021/08/28 06:58:18;;;;;;;2.00;1.60;;;;;;;;;;6186055;28;20067;-67
2021/08/28 07:01:21;;;;;;;2.80;1.42;;;;;;;;;;6181320;28;20038;-73
2021/08/28 07:04:24;;;;;;;2.58;1.67;;;;;;;;;;6190094;28;20189;-68
2021/08/28 07:07:29;;;;;;;6.55;1.65;;;;;;;;;;6180728;28;20070;-79
2021/08/28 07:10:31;;;;;;;5.38;1.48;;;;;;;;;;6178657;28;20038;-78
2021/08/28 07:13:32;;;;;;;4.30;1.70;;;;;;;;;;6189487;28;20147;-71
2021/08/28 07:16:34;;;;;;;2.90;1.60;;;;;;;;;;6176399;28;20046;-78
2021/08/28 07:19:37;;;;;;;5.80;1.75;;;;;;;;;;6182652;28;20104;-73
2021/08/28 07:22:39;;;;;;;2.75;1.75;;;;;;;;;;6179919;28;20133;-70
2021/08/28 07:25:40;;;;;;;4.88;1.77;;;;;;;;;;6179802;28;20128;-69
2021/08/28 07:28:42;;;;;;;3.47;1.50;;;;;;;;;;6187533;28;20074;-69
2021/08/28 07:31:44;;;;;;;2.70;1.67;;;;;;;;;;6183463;28;20042;-68
2021/08/28 07:34:47;;;;;;;4.28;1.88;;;;;;;;;;6194006;28;20050;-71
2021/08/28 07:37:48;;;;;;;2.47;1.75;;;;;;;;;;6183927;28;20128;-70
2021/08/28 07:40:50;;;;;;;4.15;1.83;;;;;;;;;;6184392;28;20126;-70
2021/08/28 07:43:52;;;;;;;3.13;1.90;;;;;;;;;;6193269;28;20046;-72
2021/08/28 07:46:54;;;;;;;2.67;1.60;;;;;;;;;;6178314;28;20043;-69
2021/08/28 07:49:56;;;;;;;3.22;1.70;;;;;;;;;;6187653;28;20050;-76
2021/08/28 07:52:58;;;;;;;2.50;1.70;;;;;;;;;;6180116;28;20089;-71
2021/08/28 07:56:00;;;;;;;2.63;1.75;;;;;;;;;;6171104;28;20810;-72
2021/08/28 07:59:01;;;;;;;3.13;2.00;;;;;;;;;;6190414;28;20542;-70
2021/08/28 08:02:03;;;;;;;3.78;1.80;;;;;;;;;;6176414;28;20638;-70
2021/08/28 08:05:07;;;;;;;4.95;2.08;;;;;;;;;;6184963;28;20077;-79
2021/08/28 08:08:08;;;;;;;21.70;4.50;;;;;;;;;;6181321;28;20050;-78
2021/08/28 08:11:15;;;;;;;3.70;2.00;;;;;;;;;;6174900;28;20486;-70
2021/08/28 08:14:16;;;;;;;3.30;2.30;;;;;;;;;;6185154;28;21177;-75
2021/08/28 08:17:18;;;;;;;3.05;2.22;;;;;;;;;;6176855;28;20985;-73
2021/08/28 08:20:21;;;;;;;2.67;1.80;;;;;;;;;;6176475;28;20790;-78
2021/08/28 08:23:23;;;;;;;4.13;2.15;;;;;;;;;;6181908;28;20173;-69
2021/08/28 08:26:25;;;;;;;5.28;2.33;;;;;;;;;;6178702;28;20197;-68
2021/08/28 08:29:26;;;;;;;7.20;2.80;;;;;;;;;;6185344;28;20181;-71
2021/08/28 08:32:28;;;;;;;5.60;2.35;;;;;;;;;;6167122;28;20181;-69
2021/08/28 08:35:31;;;;;;;3.95;2.55;;;;;;;;;;6177504;28;20191;-75
2021/08/28 08:38:33;;;;;;;4.43;2.53;;;;;;;;;;6184762;28;20097;-69
2021/08/28 08:41:35;;;;;;;5.28;2.50;;;;;;;;;;6178288;28;20478;-75
2021/08/28 08:44:36;;;;;;;3.30;2.40;;;;;;;;;;6185895;28;20054;-69
2021/08/28 08:47:38;;;;;;;4.45;2.45;;;;;;;;;;6177866;28;20138;-69
2021/08/28 08:50:41;;;;;;;2.85;2.30;;;;;;;;;;6178136;28;20181;-70
2021/08/28 08:53:43;;;;;;;4.07;2.90;;;;;;;;;;6188937;28;20471;-69
2021/08/28 08:56:44;;;;;;;3.83;2.53;;;;;;;;;;6176484;28;20039;-70
2021/08/28 08:59:46;;;;;;;2.83;1.95;;;;;;;;;;6189510;28;20039;-69
2021/08/28 09:02:47;;;;;;;5.03;2.53;;;;;;;;;;6173663;28;20513;-69
2021/08/28 09:05:51;;;;;;;3.05;2.58;;;;;;;;;;6181469;28;20140;-70
2021/08/28 09:08:52;;;;;;;4.57;2.22;;;;;;;;;;6189161;28;20043;-70
2021/08/28 09:11:59;;;;;;;3.92;2.63;;;;;;;;;;6182955;28;20440;-72
2021/08/28 09:15:01;;;;;;;2.47;2.28;;;;;;;;;;6189552;28;20049;-70
2021/08/28 09:18:06;;;;;;;3.05;2.47;;;;;;;;;;6179125;28;20042;-69
2021/08/28 09:21:13;;;;;;;5.00;2.58;;;;;;;;;;6178013;28;20618;-76
2021/08/28 09:24:15;;;;;;;4.20;2.78;;;;;;;;;;6185989;28;20124;-69
2021/08/28 09:27:33;;;;;;;6.15;2.50;;;;;;;;;;6176696;28;20039;-69
2021/08/28 09:30:38;;;;;;;4.95;2.35;;;;;;;;;;6177161;28;20186;-70
2021/08/28 09:33:39;;;;;;;3.67;2.67;;;;;;;;;;6182179;28;20046;-75
2021/08/28 09:36:42;;;;;;;3.92;2.90;;;;;;;;;;6184165;28;20046;-69
2021/08/28 09:39:46;;;;;;;3.53;3.00;;;;;;;;;;6187362;28;20125;-69
2021/08/28 09:42:53;;;;;;;3.90;2.85;;;;;;;;;;6181510;28;20042;-72
2021/08/28 09:45:56;;;;;;;3.63;2.67;;;;;;;;;;6175302;28;20060;-70
2021/08/28 09:49:00;;;;;;;3.92;2.95;;;;;;;;;;6182435;28;20043;-71
2021/08/28 09:52:03;;;;;;;5.30;2.60;;;;;;;;;;6179549;28;20384;-77
2021/08/28 09:55:06;;;;;;;3.63;2.67;;;;;;;;;;6186998;28;20489;-80
2021/08/28 09:58:08;;;;;;;;;;;;;;;;;;6181645;28;20054;-69
2021/08/28 10:01:10;;;;;;;3.20;2.70;;;;;;;;;;6180001;28;20028;-69
2021/08/28 10:04:11;;;;;;;2.50;2.30;;;;;;;;;;6187375;28;20050;-78
2021/08/28 10:07:16;;;;;;;;;;;;;;;;;;6181494;28;20499;-70
2021/08/28 10:10:19;;;;;;;5.30;2.78;;;;;;;;;;6149583;28;19930;-78
2021/08/28 10:13:22;;;;;;;2.85;2.15;;;;;;;;;;6181447;28;20055;-69
2021/08/28 10:16:24;;;;;;;6.32;2.35;;;;;;;;;;6179292;28;20176;-73
2021/08/28 10:19:26;;;;;;;3.80;2.53;;;;;;;;;;6166738;28;20042;-76
2021/08/28 10:22:31;;;;;;;2.50;2.13;;;;;;;;;;6159433;28;20043;-74
2021/08/28 10:25:36;;;;;;;2.35;1.95;;;;;;;;;;6180471;28;20194;-75
2021/08/28 10:28:39;;;;;;;2.80;2.00;;;;;;;;;;6183294;28;20049;-72
2021/08/28 10:31:42;;;;;;;2.90;2.10;;;;;;;;;;6174193;28;20046;-68
2021/08/28 10:34:44;;;;;;;3.97;1.98;;;;;;;;;;6184073;28;20061;-69
2021/08/28 10:37:47;;;;;;;2.13;1.90;;;;;;;;;;6183266;28;20070;-69
2021/08/28 10:40:53;;;;;;;3.35;2.13;;;;;;;;;;6178340;28;20054;-69
2021/08/28 10:43:55;;;;;;;3.05;1.77;;;;;;;;;;6188828;28;20055;-72
2021/08/28 10:46:56;;;;;;;3.95;1.98;;;;;;;;;;6184341;28;20050;-70
2021/08/28 10:50:03;;;;;;;2.35;1.70;;;;;;;;;;6182290;28;20116;-80
2021/08/28 10:53:07;;;;;;;2.25;1.75;;;;;;;;;;6178173;28;20139;-69
2021/08/28 10:56:10;;;;;;;2.47;1.88;;;;;;;;;;6182757;28;20104;-74
2021/08/28 10:59:22;;;;;;;3.20;2.20;;;;;;;;;;6186322;28;20124;-70
2021/08/28 11:02:24;;;;;;;2.80;2.00;;;;;;;;;;6176070;28;20050;-76
2021/08/28 11:05:28;;;;;;;2.00;1.80;;;;;;;;;;6174856;28;20928;-81
2021/08/28 11:08:45;;;;;;;1.92;1.70;;;;;;;;;;6189142;28;20042;-71
2021/08/28 11:11:48;;;;;;;2.97;2.08;;;;;;;;;;6180038;28;20038;-70
2021/08/28 11:14:49;;;;;;;2.55;1.90;;;;;;;;;;6187549;28;20047;-72
2021/08/28 11:17:51;;;;;;;3.28;2.20;;;;;;;;;;6173807;28;20553;-69
2021/08/28 11:20:52;;;;;;;3.92;2.15;;;;;;;;;;6178130;28;20165;-70
2021/08/28 11:23:55;;;;;;;;;;;;;;;;;;6191349;28;20050;-68
2021/08/28 11:26:58;;;;;;;2.28;1.98;;;;;;;;;;6180731;28;19976;-69
2021/08/28 11:30:00;;;;;;;2.20;2.00;;;;;;;;;;6189493;28;20182;-69
2021/08/28 11:33:02;;;;;;;2.42;1.50;;;;;;;;;;6179558;28;20039;-69
2021/08/28 11:36:06;;;;;;;3.30;1.90;;;;;;;;;;6174219;28;20093;-69
2021/08/28 11:39:24;;;;;;;2.67;2.08;;;;;;;;;;6193040;28;20062;-68
2021/08/28 11:42:26;;;;;;;3.67;1.90;;;;;;;;;;6178750;28;20085;-68
2021/08/28 11:45:36;;;;;;;4.15;1.75;;;;;;;;;;6176930;28;20120;-77
2021/08/28 11:48:39;;;;;;;3.47;1.83;;;;;;;;;;6180411;28;20042;-69
2021/08/28 11:51:41;;;;;;;2.65;1.73;;;;;;;;;;6174678;28;20121;-69
2021/08/28 11:54:45;;;;;;;2.30;2.10;;;;;;;;;;6182338;28;20162;-69
2021/08/28 11:57:59;;;;;;;2.92;2.28;;;;;;;;;;6172596;28;20038;-71
2021/08/28 12:01:01;;;;;;;3.03;2.10;;;;;;;;;;6178632;28;20132;-77
2021/08/28 12:04:05;;;;;;;2.97;2.38;;;;;;;;;;6177715;28;20051;-68
2021/08/28 12:07:07;;;;;;;2.10;1.90;;;;;;;;;;6176357;28;20117;-69
2021/08/28 12:10:11;;;;;;;2.28;1.90;;;;;;;;;;6178161;28;20057;-79
2021/08/28 12:13:13;;;;;;;2.97;2.17;;;;;;;;;;6183503;28;20193;-69
2021/08/28 12:16:20;;;;;;;2.67;1.67;;;;;;;;;;6173680;28;20042;-69
2021/08/28 12:19:23;;;;;;;3.47;1.80;;;;;;;;;;6183366;28;20137;-70
2021/08/28 12:22:25;;;;;;;2.65;1.90;;;;;;;;;;6176341;28;20073;-81
2021/08/28 12:25:29;;;;;;;2.63;1.90;;;;;;;;;;6177809;28;20043;-80
2021/08/28 12:28:30;;;;;;;2.17;1.80;;;;;;;;;;6189284;28;20199;-69
2021/08/28 12:31:32;;;;;;;3.60;2.15;;;;;;;;;;6174750;28;20077;-77
2021/08/28 12:34:35;;;;;;;1.95;1.70;;;;;;;;;;6180362;28;20046;-71
2021/08/28 12:37:38;;;;;;;1.83;1.60;;;;;;;;;;6175756;28;20078;-70
2021/08/28 12:40:41;;;;;;;1.75;1.60;;;;;;;;;;6176240;28;20202;-77
2021/08/28 12:43:44;;;;;;;1.95;1.70;;;;;;;;;;6185063;28;20414;-72
2021/08/28 12:46:47;;;;;;;2.60;2.00;;;;;;;;;;6174817;28;20129;-70
2021/08/28 12:49:52;;;;;;;3.47;2.00;;;;;;;;;;6182378;28;20585;-68
2021/08/28 12:53:05;;;;;;;3.13;1.80;;;;;;;;;;6175891;28;20103;-70
2021/08/28 12:56:08;;;;;;;2.10;1.70;;;;;;;;;;6181967;28;20050;-69
2021/08/28 12:59:16;;;;;;;2.58;1.90;;;;;;;;;;6185730;28;20042;-79
2021/08/28 13:02:19;;;;;;;3.20;1.70;;;;;;;;;;6180258;28;20085;-74
2021/08/28 13:05:23;;;;;;;2.80;1.98;;;;;;;;;;6175429;28;20126;-80
2021/08/28 13:08:31;;;;;;;2.55;2.00;;;;;;;;;;6187360;28;20044;-68
2021/08/28 13:11:34;;;;;;;4.13;1.95;;;;;;;;;;6182275;28;20057;-69
2021/08/28 13:14:49;;;;;;;3.10;1.70;;;;;;;;;;6186155;28;20489;-72
2021/08/28 13:17:51;;;;;;;5.03;1.77;;;;;;;;;;6177042;28;20050;-68
2021/08/28 13:20:54;;;;;;;2.72;1.63;;;;;;;;;;6179269;28;20051;-76
2021/08/28 13:24:08;;;;;;;5.30;2.17;;;;;;;;;;6189483;28;20058;-68
2021/08/28 13:27:11;;;;;;;2.38;1.95;;;;;;;;;;6180924;28;20081;-68
2021/08/28 13:30:17;;;;;;;2.03;1.77;;;;;;;;;;6184258;28;20136;-70
2021/08/28 13:33:25;;;;;;;3.15;1.70;;;;;;;;;;6181763;28;20483;-76
2021/08/28 13:36:28;;;;;;;2.72;1.95;;;;;;;;;;6182812;28;20054;-69
2021/08/28 13:39:29;;;;;;;3.05;1.80;;;;;;;;;;6185389;28;20070;-69
2021/08/28 13:42:32;;;;;;;2.10;1.63;;;;;;;;;;6186496;28;20140;-67
2021/08/28 13:45:34;;;;;;;2.22;1.85;;;;;;;;;;6187636;28;20171;-80
2021/08/28 13:48:35;;;;;;;2.92;1.90;;;;;;;;;;6186710;28;20133;-70
2021/08/28 13:51:37;;;;;;;2.50;1.80;;;;;;;;;;6176402;28;20137;-68
2021/08/28 13:54:39;;;;;;;4.10;1.70;;;;;;;;;;6184090;28;20523;-68
2021/08/28 13:57:42;;;;;;;2.03;1.70;;;;;;;;;;6177715;28;20189;-68
2021/08/28 14:00:43;;;;;;;1.90;1.60;;;;;;;;;;6177770;28;20042;-80
2021/08/28 14:03:45;;;;;;;3.20;2.08;;;;;;;;;;6185174;28;20095;-67
2021/08/28 14:06:46;;;;;;;3.33;2.00;;;;;;;;;;6183943;28;20424;-68
2021/08/28 14:09:48;;;;;;;2.42;1.63;;;;;;;;;;6185079;28;20066;-67
2021/08/28 14:12:51;;;;;;;2.70;1.92;;;;;;;;;;6181582;28;20618;-67
2021/08/28 14:15:53;;;;;;;1.80;1.58;;;;;;;;;;6179161;28;20499;-70
2021/08/28 14:18:54;;;;;;;2.75;1.90;;;;;;;;;;6178465;28;20051;-74
2021/08/28 14:21:57;;;;;;;2.97;1.88;;;;;;;;;;6179276;28;20065;-68
2021/08/28 14:24:59;;;;;;;3.83;1.70;;;;;;;;;;6188956;28;20050;-67
2021/08/28 14:28:02;;;;;;;1.92;1.45;;;;;;;;;;6177678;28;20182;-68
2021/08/28 14:31:03;;;;;;;1.85;1.52;;;;;;;;;;6180585;28;20569;-82
2021/08/28 14:34:05;;;;;;;2.17;1.58;;;;;;;;;;6181718;28;20043;-68
2021/08/28 14:37:07;;;;;;;2.03;1.73;;;;;;;;;;6179014;28;20050;-68
2021/08/28 14:40:10;;;;;;;2.90;1.70;;;;;;;;;;6187476;28;20117;-82
2021/08/28 14:43:13;;;;;;;3.13;1.60;;;;;;;;;;6185748;28;20062;-67
2021/08/28 14:46:15;;;;;;;1.80;1.60;;;;;;;;;;6175832;28;20061;-67
2021/08/28 14:49:17;;;;;;;2.08;1.50;;;;;;;;;;6189067;28;20158;-76
2021/08/28 14:52:18;;;;;;;1.80;1.58;;;;;;;;;;6182341;28;20899;-68
2021/08/28 14:55:20;;;;;;;2.47;1.63;;;;;;;;;;6183564;28;20185;-80
2021/08/28 14:58:23;;;;;;;5.35;1.90;;;;;;;;;;6186720;28;20129;-70
2021/08/28 15:01:26;;;;;;;2.55;1.73;;;;;;;;;;6176501;28;20034;-71
2021/08/28 15:04:27;;;;;;;2.65;1.73;;;;;;;;;;6182555;28;20050;-68
2021/08/28 15:07:29;;;;;;;3.47;1.67;;;;;;;;;;6179928;28;20077;-68
2021/08/28 15:10:30;;;;;;;2.05;1.70;;;;;;;;;;6183129;28;20548;-80
2021/08/28 15:13:33;;;;;;;1.67;1.58;;;;;;;;;;6188575;28;20068;-69
2021/08/28 15:16:35;;;;;;;3.45;1.63;;;;;;;;;;6181811;28;20046;-68
2021/08/28 15:19:36;;;;;;;2.10;1.70;;;;;;;;;;6187939;28;20137;-73
2021/08/28 15:22:38;;;;;;;1.65;1.48;;;;;;;;;;6178032;28;20092;-69
2021/08/28 15:25:41;;;;;;;2.72;1.70;;;;;;;;;;6181088;28;20057;-70
2021/08/28 15:28:44;;;;;;;1.98;1.70;;;;;;;;;;6186117;28;20129;-68
2021/08/28 15:31:46;;;;;;;2.45;1.52;;;;;;;;;;6176641;28;20137;-69
2021/08/28 15:34:48;;;;;;;3.15;1.73;;;;;;;;;;6184315;28;20502;-68
2021/08/28 15:37:51;;;;;;;2.33;1.50;;;;;;;;;;6178547;28;20137;-67
2021/08/28 15:40:53;;;;;;;2.45;1.40;;;;;;;;;;6182635;28;20054;-67
2021/08/28 15:43:56;;;;;;;;;;;;;;;;;;6187399;28;20376;-67
2021/08/28 15:46:58;;;;;;;2.63;1.75;;;;;;;;;;6174033;28;19929;-67
2021/08/28 15:49:59;;;;;;;2.43;1.60;;;;;;;;;;6183245;28;20173;-77
2021/08/28 15:53:01;;;;;;;2.28;1.35;;;;;;;;;;6181729;28;20046;-68
2021/08/28 15:56:03;;;;;;;1.80;1.40;;;;;;;;;;6183221;28;20189;-67
2021/08/28 15:59:06;;;;;;;1.70;1.40;;;;;;;;;;6186613;28;20121;-67
2021/08/28 16:02:08;;;;;;;2.53;1.60;;;;;;;;;;6176560;28;20134;-73
2021/08/28 16:05:10;;;;;;;2.03;1.65;;;;;;;;;;6186107;28;20058;-68
2021/08/28 16:08:12;;;;;;;2.10;1.63;;;;;;;;;;6185775;28;20329;-67
2021/08/28 16:11:16;;;;;;;1.90;1.53;;;;;;;;;;6184072;28;20177;-75
2021/08/28 16:14:19;;;;;;;2.67;2.00;;;;;;;;;;6188122;28;20509;-68
2021/08/28 16:17:20;;;;;;;2.15;1.50;;;;;;;;;;6178061;28;20133;-67
2021/08/28 16:20:22;;;;;;;2.38;1.63;;;;;;;;;;6183477;28;20070;-79
2021/08/28 16:23:23;;;;;;;2.90;1.90;;;;;;;;;;6189630;28;20058;-67
2021/08/28 16:26:25;;;;;;;4.55;1.73;;;;;;;;;;6181194;28;20046;-72
2021/08/28 16:29:28;;;;;;;2.95;1.75;;;;;;;;;;6190332;28;20053;-67
2021/08/28 16:32:30;;;;;;;;;;;;;;;;;;6183523;28;20492;-71
2021/08/28 16:35:31;;;;;;;2.22;1.55;;;;;;;;;;6180457;28;20770;-76
2021/08/28 16:38:33;;;;;;;3.40;1.85;;;;;;;;;;6194680;28;20125;-78
2021/08/28 16:41:34;;;;;;;1.63;1.25;;;;;;;;;;6186228;28;20046;-68
2021/08/28 16:44:37;;;;;;;1.90;1.48;;;;;;;;;;6190243;28;20169;-68
2021/08/28 16:47:39;;;;;;;2.80;1.60;;;;;;;;;;6183428;28;20105;-67
2021/08/28 16:50:40;;;;;;;2.88;1.55;;;;;;;;;;6189486;28;20060;-67
2021/08/28 16:53:42;;;;;;;2.83;1.45;;;;;;;;;;6194651;28;20459;-67
2021/08/28 16:56:44;;;;;;;2.67;1.65;;;;;;;;;;6186921;28;20050;-67
2021/08/28 16:59:47;;;;;;;2.80;1.60;;;;;;;;;;6191856;28;20049;-67
2021/08/28 17:02:48;;;;;;;2.42;1.55;;;;;;;;;;6175360;28;20046;-67
2021/08/28 17:05:50;;;;;;;2.00;1.50;;;;;;;;;;6181949;28;20133;-67
2021/08/28 17:08:52;;;;;;;3.17;1.60;;;;;;;;;;6185929;28;20374;-67
2021/08/28 17:11:56;;;;;;;7.30;1.60;;;;;;;;;;6178121;28;20185;-69
2021/08/28 17:14:59;;;;;;;2.90;1.60;;;;;;;;;;6191739;28;20371;-67
2021/08/28 17:18:00;;;;;;;2.85;1.60;;;;;;;;;;6179424;28;20042;-74
2021/08/28 17:21:02;;;;;;;6.43;1.77;;;;;;;;;;6178800;28;20520;-67
2021/08/28 17:24:04;;;;;;;2.35;1.45;;;;;;;;;;6187119;28;20082;-67
2021/08/28 17:27:06;;;;;;;3.50;1.73;;;;;;;;;;6185687;28;20188;-67
2021/08/28 17:30:10;;;;;;;3.83;1.47;;;;;;;;;;6184251;28;20135;-78
2021/08/28 17:33:12;;;;;;;3.45;1.70;;;;;;;;;;6181333;28;20160;-69
2021/08/28 17:36:13;;;;;;;1.92;1.50;;;;;;;;;;6176527;28;20050;-67
2021/08/28 17:39:15;;;;;;;2.20;1.40;;;;;;;;;;6192475;28;20051;-67
2021/08/28 17:42:16;;;;;;;1.88;1.23;;;;;;;;;;6182442;28;20189;-80
2021/08/28 17:45:20;;;;;;;2.30;1.50;;;;;;;;;;6186197;28;20050;-77
2021/08/28 17:48:21;;;;;;;2.95;1.40;;;;;;;;;;6179184;28;20058;-78
2021/08/28 17:51:23;;;;;;;3.50;1.88;;;;;;;;;;6180046;28;20502;-68
2021/08/28 17:54:24;;;;;;;2.67;1.60;;;;;;;;;;6186085;28;20047;-72
2021/08/28 17:57:26;;;;;;;2.13;1.60;;;;;;;;;;6178710;28;20440;-71
2021/08/28 18:00:29;;;;;;;2.70;1.73;;;;;;;;;;6181811;28;20074;-67
2021/08/28 18:03:31;;;;;;;;;;;;;;;;;;6176421;28;20117;-67
2021/08/28 18:06:32;;;;;;;3.78;1.50;;;;;;;;;;6179170;28;19929;-67
2021/08/28 18:09:34;;;;;;;3.35;2.20;;;;;;;;;;6181701;28;20396;-71
2021/08/28 18:12:36;;;;;;;2.97;2.08;;;;;;;;;;6180949;28;20046;-75
2021/08/28 18:15:39;;;;;;;5.40;2.10;;;;;;;;;;6178115;28;20137;-79
2021/08/28 18:18:41;;;;;;;5.35;1.60;;;;;;;;;;6182624;28;20806;-67